Time;durP1;ratioP1;P1;durP2;ratioP2;P2;SDS_P1;SDS_P2;PMS_P1;PMS_P2;Temp;Humidity;BMP_temperature;BMP_pressure;BME280_temperature;BME280_humidity;BME280_pressure;Samples;Min_cycle;Max_cycle;Signal;HPM_P1;HPM_P2
2023/12/07 00:02:26;;;;;;;55.60;30.35;;;;;;;-0.29;93.36;101261.63;4953840;28;20075;-72
2023/12/07 00:04:53;;;;;;;51.85;29.63;;;;;;;-0.22;93.37;101266.69;4953531;28;20051;-72
2023/12/07 00:07:19;;;;;;;51.40;29.88;;;;;;;-0.34;93.68;101268.91;4954268;28;20054;-73
2023/12/07 00:09:46;;;;;;;53.85;30.85;;;;;;;-0.29;93.49;101275.81;4953354;28;20474;-72
2023/12/07 00:12:14;;;;;;;51.45;30.70;;;;;;;-0.27;93.71;101270.44;4953573;28;20126;-73
2023/12/07 00:14:41;;;;;;;54.58;31.25;;;;;;;-0.24;93.38;101267.69;4953078;28;20082;-72
2023/12/07 00:17:08;;;;;;;55.17;30.00;;;;;;;-0.13;93.11;101264.63;4952932;28;20134;-73
2023/12/07 00:19:34;;;;;;;53.97;30.90;;;;;;;-0.39;93.01;101265.53;4952235;28;20120;-73
2023/12/07 00:22:01;;;;;;;54.17;29.88;;;;;;;-0.27;93.32;101268.63;4953218;28;20043;-72
2023/12/07 00:24:28;;;;;;;52.05;29.75;;;;;;;-0.40;93.42;101267.31;4953323;28;20055;-73
2023/12/07 00:26:55;;;;;;;53.05;29.73;;;;;;;-0.28;93.53;101268.69;4952833;28;20058;-72
2023/12/07 00:29:22;;;;;;;53.67;30.00;;;;;;;-0.20;93.18;101270.16;4953137;28;20051;-74
2023/12/07 00:31:49;;;;;;;54.03;30.90;;;;;;;-0.08;93.00;101273.31;4953048;28;20054;-73
2023/12/07 00:34:17;;;;;;;50.35;29.13;;;;;;;-0.09;92.08;101267.13;4952915;28;20051;-73
2023/12/07 00:36:43;;;;;;;49.42;28.98;;;;;;;-0.14;92.67;101274.44;4951263;28;20075;-73
2023/12/07 00:39:10;;;;;;;51.50;29.70;;;;;;;-0.16;92.81;101277.16;4951025;28;20098;-74
2023/12/07 00:41:38;;;;;;;54.13;30.20;;;;;;;-0.21;92.67;101280.88;4952268;28;20118;-73
2023/12/07 00:44:05;;;;;;;50.10;29.90;;;;;;;-0.27;92.41;101279.28;4952465;28;20047;-73
2023/12/07 00:46:32;;;;;;;52.13;29.50;;;;;;;-0.37;92.73;101277.00;4952270;28;20047;-73
2023/12/07 00:48:59;;;;;;;50.70;29.77;;;;;;;-0.28;92.72;101272.22;4952312;28;20381;-73
2023/12/07 00:51:25;;;;;;;49.97;28.52;;;;;;;-0.29;93.55;101278.47;4952381;28;20047;-73
2023/12/07 00:53:52;;;;;;;48.17;28.42;;;;;;;-0.28;93.03;101284.69;4942244;28;20119;-74
2023/12/07 00:56:18;;;;;;;53.40;30.75;;;;;;;-0.30;93.08;101278.53;4933540;29;20048;-74
2023/12/07 00:58:45;;;;;;;52.33;28.55;;;;;;;-0.31;92.70;101280.34;4947090;28;20445;-72
2023/12/07 01:01:11;;;;;;;50.08;29.45;;;;;;;-0.32;92.80;101285.72;4932859;29;20095;-72
2023/12/07 01:03:40;;;;;;;53.95;30.52;;;;;;;-0.33;93.23;101283.97;4932886;29;20044;-72
2023/12/07 01:06:07;;;;;;;56.83;31.60;;;;;;;-0.32;93.20;101294.59;4932563;28;20149;-72
2023/12/07 01:08:34;;;;;;;50.00;29.08;;;;;;;-0.26;92.72;101301.50;4933159;28;20054;-72
2023/12/07 01:11:01;;;;;;;55.92;30.67;;;;;;;-0.14;92.40;101301.09;4932356;29;20052;-72
2023/12/07 01:13:27;;;;;;;52.03;29.42;;;;;;;0.01;91.96;101311.19;4932666;29;20505;-72
2023/12/07 01:15:55;;;;;;;51.97;29.88;;;;;;;-0.20;92.80;101306.63;4932840;28;20411;-72
2023/12/07 01:18:21;;;;;;;49.33;28.88;;;;;;;-0.07;92.52;101318.63;4933388;29;20560;-73
2023/12/07 01:20:48;;;;;;;51.33;29.08;;;;;;;-0.09;92.58;101315.13;4932859;28;20050;-73
2023/12/07 01:23:14;;;;;;;50.95;28.05;;;;;;;-0.14;93.04;101319.75;4932671;29;20390;-73
2023/12/07 01:25:42;;;;;;;48.33;28.38;;;;;;;-0.18;92.81;101321.63;4932521;28;20151;-72
2023/12/07 01:28:09;;;;;;;47.20;28.38;;;;;;;-0.23;93.40;101325.41;4931993;28;20075;-73
2023/12/07 01:30:36;;;;;;;50.65;28.30;;;;;;;-0.09;92.87;101325.78;4947210;29;20075;-73
2023/12/07 01:33:03;;;;;;;50.50;28.92;;;;;;;-0.04;93.14;101329.16;4932531;28;20048;-74
2023/12/07 01:35:29;;;;;;;49.88;29.52;;;;;;;0.05;92.57;101336.84;4932891;29;20422;-74
2023/12/07 01:37:56;;;;;;;48.75;29.55;;;;;;;-0.04;92.45;101338.97;4932274;28;20052;-73
2023/12/07 01:40:23;;;;;;;49.33;28.50;;;;;;;0.01;92.28;101337.88;4933001;28;20048;-74
2023/12/07 01:42:51;;;;;;;49.47;28.48;;;;;;;0.11;92.17;101344.63;4932508;29;20063;-73
2023/12/07 01:45:19;;;;;;;48.97;29.27;;;;;;;0.12;91.32;101334.84;4932304;28;20043;-73
2023/12/07 01:47:47;;;;;;;48.97;28.42;;;;;;;0.04;92.16;101344.91;4932307;29;20050;-74
2023/12/07 01:50:17;;;;;;;50.08;29.25;;;;;;;0.08;91.86;101342.06;4932456;28;20060;-73
2023/12/07 01:52:47;;;;;;;44.30;26.80;;;;;;;0.17;91.84;101348.88;4932510;28;20056;-73
2023/12/07 01:55:14;;;;;;;45.80;27.83;;;;;;;0.17;91.93;101337.34;4932377;29;20059;-74
2023/12/07 01:57:44;;;;;;;49.20;29.20;;;;;;;0.09;91.95;101343.81;4932349;28;20497;-73
2023/12/07 02:00:14;;;;;;;46.80;28.55;;;;;;;0.03;91.67;101349.38;4932353;28;20044;-73
2023/12/07 02:02:43;;;;;;;47.90;27.88;;;;;;;0.04;92.31;101347.56;4932182;29;20060;-73
2023/12/07 02:08:56;;;;;;;45.00;27.15;;;;;;;0.01;92.08;101348.53;4934343;28;20059;-74
2023/12/07 02:11:24;;;;;;;49.15;28.92;;;;;;;0.18;91.56;101349.75;4933727;28;20044;-73
2023/12/07 02:13:55;;;;;;;45.88;27.17;;;;;;;0.14;91.56;101343.66;4933239;28;20123;-73
2023/12/07 02:16:34;;;;;;;47.45;26.88;;;;;;;0.14;91.68;101352.53;4933341;28;20130;-74
2023/12/07 02:19:34;;;;;;;46.10;27.40;;;;;;;0.03;92.13;101351.19;4933419;28;20103;-73
2023/12/07 02:22:10;;;;;;;44.80;27.90;;;;;;;0.06;91.98;101343.94;4934477;28;20476;-72
2023/12/07 02:24:38;;;;;;;48.35;28.42;;;;;;;-0.01;92.23;101334.38;4933342;28;20050;-73
2023/12/07 02:27:04;;;;;;;48.50;28.77;;;;;;;-0.08;92.50;101343.50;4931959;29;20040;-73
2023/12/07 02:29:31;;;;;;;49.78;28.80;;;;;;;-0.05;92.30;101351.44;4933012;29;20445;-72
2023/12/07 02:31:57;;;;;;;49.75;28.33;;;;;;;-0.02;92.79;101358.44;4934220;28;20459;-73
2023/12/07 02:34:24;;;;;;;47.42;29.48;;;;;;;-0.04;92.74;101361.16;4933415;29;20485;-73
2023/12/07 02:36:57;;;;;;;48.47;29.15;;;;;;;0.19;91.60;101362.16;4933115;29;20516;-74
2023/12/07 02:39:25;;;;;;;47.10;28.55;;;;;;;0.01;92.07;101359.19;4933827;28;20093;-73
2023/12/07 02:41:53;;;;;;;44.50;26.65;;;;;;;0.08;92.38;101358.06;4933147;28;20106;-73
2023/12/07 02:44:20;;;;;;;47.25;28.38;;;;;;;0.12;92.24;101366.84;4948746;28;20066;-73
2023/12/07 02:46:47;;;;;;;48.83;28.60;;;;;;;0.24;92.13;101360.22;4933533;28;20052;-73
2023/12/07 02:49:13;;;;;;;46.28;27.98;;;;;;;0.12;91.84;101359.72;4932530;28;20058;-72
2023/12/07 02:51:40;;;;;;;48.72;29.75;;;;;;;0.25;91.46;101367.28;4932807;28;20107;-73
2023/12/07 02:54:07;;;;;;;45.97;27.27;;;;;;;0.20;90.76;101363.91;4932890;28;20052;-72
2023/12/07 02:56:33;;;;;;;47.38;28.13;;;;;;;0.17;91.54;101367.56;4932431;28;20048;-73
2023/12/07 02:59:00;;;;;;;50.65;29.92;;;;;;;0.27;91.70;101378.78;4931952;28;20123;-72
2023/12/07 03:01:27;;;;;;;47.30;27.10;;;;;;;0.45;90.23;101375.44;4933707;29;20053;-73
2023/12/07 03:03:53;;;;;;;49.08;27.10;;;;;;;0.36;90.23;101381.97;4931562;28;20099;-73
2023/12/07 03:06:20;;;;;;;45.30;27.75;;;;;;;0.27;90.90;101381.44;4932718;28;20083;-73
2023/12/07 03:08:47;;;;;;;47.67;28.73;;;;;;;0.14;91.43;101375.66;4931369;28;20114;-73
2023/12/07 03:11:14;;;;;;;48.72;26.55;;;;;;;0.04;91.51;101384.91;4933885;28;20103;-73
2023/12/07 03:13:41;;;;;;;46.67;28.42;;;;;;;0.09;91.83;101383.81;4931607;29;20055;-73
2023/12/07 03:16:09;;;;;;;50.63;28.08;;;;;;;-0.02;91.81;101383.31;4931344;28;20091;-73
2023/12/07 03:18:37;;;;;;;49.03;29.33;;;;;;;0.01;91.97;101391.19;4932524;28;20066;-73
2023/12/07 03:21:03;;;;;;;47.28;28.42;;;;;;;-0.03;92.03;101389.56;4933543;28;20055;-73
2023/12/07 03:23:32;;;;;;;47.15;28.83;;;;;;;-0.07;92.14;101393.28;4946329;28;20414;-72
2023/12/07 03:25:59;;;;;;;46.30;27.58;;;;;;;-0.02;92.52;101390.44;4933312;28;20051;-73
2023/12/07 03:28:26;;;;;;;46.38;27.85;;;;;;;-0.02;92.15;101393.13;4932714;28;20054;-72
2023/12/07 03:30:52;;;;;;;51.45;29.35;;;;;;;0.02;92.38;101392.94;4931406;28;20457;-72
2023/12/07 03:33:19;;;;;;;46.85;27.95;;;;;;;0.07;92.45;101400.81;4932760;28;20098;-72
2023/12/07 03:35:49;;;;;;;48.38;29.20;;;;;;;0.04;92.01;101399.13;4931874;28;20058;-73
2023/12/07 03:38:15;;;;;;;44.42;27.30;;;;;;;0.13;91.96;101395.28;4932876;29;20102;-72
2023/12/07 03:40:42;;;;;;;46.13;27.88;;;;;;;0.17;91.65;101406.69;4933113;28;20080;-72
2023/12/07 03:43:08;;;;;;;46.90;27.30;;;;;;;0.03;92.30;101404.50;4931596;29;20047;-72
2023/12/07 03:45:37;;;;;;;47.42;28.50;;;;;;;-0.01;92.13;101405.53;4931917;29;20055;-72
2023/12/07 03:48:04;;;;;;;48.33;28.27;;;;;;;0.04;92.29;101412.47;4932332;28;20051;-72
2023/12/07 03:50:32;;;;;;;49.17;28.88;;;;;;;0.01;92.15;101417.00;4931409;28;20501;-72
2023/12/07 03:52:58;;;;;;;49.08;29.40;;;;;;;0.07;92.49;101411.47;4932697;28;20056;-72
2023/12/07 03:55:26;;;;;;;47.13;28.67;;;;;;;-0.03;92.25;101410.91;4932038;28;20056;-72
2023/12/07 03:57:52;;;;;;;48.75;28.98;;;;;;;-0.07;92.53;101414.63;4932055;29;20128;-72
2023/12/07 04:00:20;;;;;;;46.63;29.42;;;;;;;-0.08;92.78;101409.31;4931529;28;20476;-73
2023/12/07 04:02:47;;;;;;;48.60;28.48;;;;;;;0.01;92.29;101409.88;4932274;29;20575;-72
2023/12/07 04:05:14;;;;;;;50.63;29.05;;;;;;;-0.14;92.88;101407.72;4931623;29;20508;-72
2023/12/07 04:07:41;;;;;;;51.88;29.45;;;;;;;-0.11;92.87;101407.63;4931870;28;20078;-72
2023/12/07 04:10:09;;;;;;;53.60;30.45;;;;;;;-0.12;92.93;101405.00;4930713;28;20420;-72
2023/12/07 04:12:35;;;;;;;54.03;30.67;;;;;;;-0.11;92.58;101401.41;4930799;29;20160;-72
2023/12/07 04:15:02;;;;;;;54.10;29.95;;;;;;;-0.12;92.82;101416.53;4931322;28;20464;-72
2023/12/07 04:17:29;;;;;;;52.55;31.23;;;;;;;-0.13;92.73;101409.47;4931566;28;20069;-72
2023/12/07 04:19:55;;;;;;;52.17;30.20;;;;;;;-0.07;92.86;101416.38;4931588;28;20054;-72
2023/12/07 04:22:24;;;;;;;54.70;31.33;;;;;;;-0.10;92.26;101414.69;4931569;28;20397;-73
2023/12/07 04:24:51;;;;;;;56.38;31.42;;;;;;;-0.08;92.62;101417.31;4931620;28;20414;-72
2023/12/07 04:27:19;;;;;;;50.67;30.05;;;;;;;-0.06;92.58;101420.81;4930996;29;20119;-72
2023/12/07 04:29:46;;;;;;;54.25;31.52;;;;;;;-0.10;92.77;101416.50;4931217;28;20115;-72
2023/12/07 04:32:13;;;;;;;50.58;29.80;;;;;;;-0.10;93.12;101429.81;4931342;28;20054;-72
2023/12/07 04:34:39;;;;;;;56.95;31.88;;;;;;;-0.09;92.75;101437.75;4931492;28;20048;-72
2023/12/07 04:37:06;;;;;;;52.35;31.25;;;;;;;-0.03;92.70;101436.72;4931522;28;20052;-72
2023/12/07 04:39:32;;;;;;;58.83;32.53;;;;;;;-0.04;92.61;101440.31;4932006;28;20047;-72
2023/12/07 04:41:59;;;;;;;55.72;31.77;;;;;;;-0.05;92.58;101442.09;4932350;28;20067;-72
2023/12/07 04:44:26;;;;;;;58.88;32.83;;;;;;;-0.07;92.69;101451.94;4932258;28;20079;-72
2023/12/07 04:46:53;;;;;;;55.88;31.77;;;;;;;-0.00;92.56;101460.59;4931068;28;20050;-72
2023/12/07 04:49:20;;;;;;;59.83;32.00;;;;;;;-0.07;92.57;101462.63;4931512;28;20150;-72
2023/12/07 04:51:46;;;;;;;59.75;31.92;;;;;;;0.05;92.93;101453.34;4931429;28;20556;-73
2023/12/07 04:54:14;;;;;;;58.67;32.33;;;;;;;0.07;92.41;101454.16;4942532;28;20051;-72
2023/12/07 04:56:45;;;;;;;61.60;33.60;;;;;;;0.05;92.25;101446.19;4950399;28;20467;-72
2023/12/07 04:59:12;;;;;;;63.28;34.47;;;;;;;-0.03;92.54;101448.25;4951006;28;20427;-72
2023/12/07 05:01:39;;;;;;;59.42;32.20;;;;;;;-0.06;92.30;101461.69;4950956;28;20047;-72
2023/12/07 05:04:06;;;;;;;65.47;34.35;;;;;;;-0.02;92.59;101459.78;4950472;28;20048;-72
2023/12/07 05:06:34;;;;;;;61.63;33.03;;;;;;;0.02;92.36;101456.06;4950287;28;20082;-72
2023/12/07 05:09:01;;;;;;;64.07;34.47;;;;;;;-0.04;92.69;101464.31;4950656;28;20051;-71
2023/12/07 05:11:27;;;;;;;74.47;36.38;;;;;;;-0.09;92.67;101458.22;4951467;28;20082;-72
2023/12/07 05:13:54;;;;;;;74.85;36.92;;;;;;;-0.07;92.91;101449.28;4950175;28;20496;-73
2023/12/07 05:16:20;;;;;;;71.25;35.70;;;;;;;-0.02;92.52;101455.31;4949814;28;20043;-72
2023/12/07 05:18:47;;;;;;;74.30;35.17;;;;;;;-0.00;92.29;101457.94;4950583;28;20058;-72
2023/12/07 05:21:14;;;;;;;72.75;35.80;;;;;;;-0.11;92.56;101458.28;4951433;28;20047;-72
2023/12/07 05:23:40;;;;;;;72.80;36.35;;;;;;;0.03;92.59;101466.72;4950380;28;20039;-72
2023/12/07 05:26:08;;;;;;;75.03;35.83;;;;;;;-0.09;92.43;101464.44;4950478;28;20053;-71
2023/12/07 05:28:36;;;;;;;77.80;37.53;;;;;;;-0.05;92.54;101466.09;4949335;28;20051;-71
2023/12/07 05:31:02;;;;;;;74.43;36.55;;;;;;;-0.05;92.29;101473.22;4950087;28;20456;-71
2023/12/07 05:33:31;;;;;;;77.75;37.45;;;;;;;-0.12;92.33;101469.88;4951033;28;20075;-71
2023/12/07 05:35:58;;;;;;;75.50;36.42;;;;;;;-0.12;92.80;101467.22;4951127;28;20063;-73
2023/12/07 05:38:24;;;;;;;77.95;35.33;;;;;;;-0.11;92.61;101471.63;4950475;28;20051;-72
2023/12/07 05:40:51;;;;;;;80.60;36.67;;;;;;;-0.04;92.67;101473.16;4953809;28;20047;-72
2023/12/07 05:43:17;;;;;;;78.35;36.78;;;;;;;-0.03;92.78;101464.25;4953958;28;20472;-71
2023/12/07 05:45:45;;;;;;;81.18;36.78;;;;;;;-0.05;93.03;101473.22;4952599;28;20154;-72
2023/12/07 05:48:12;;;;;;;80.50;36.97;;;;;;;0.07;92.41;101464.81;4952820;28;20043;-72
2023/12/07 05:50:39;;;;;;;82.15;36.58;;;;;;;0.04;92.43;101471.13;4952123;28;20051;-72
2023/12/07 05:53:06;;;;;;;77.13;36.72;;;;;;;-0.00;92.77;101457.94;4954107;28;20051;-72
2023/12/07 05:55:33;;;;;;;79.93;37.40;;;;;;;0.01;92.64;101465.00;4953763;28;20051;-72
2023/12/07 05:58:00;;;;;;;90.15;39.25;;;;;;;-0.07;92.75;101467.94;4952746;28;20078;-71
2023/12/07 06:00:27;;;;;;;87.10;38.35;;;;;;;-0.06;92.96;101479.47;4954582;28;20077;-72
2023/12/07 06:02:54;;;;;;;86.10;38.22;;;;;;;-0.01;92.38;101474.84;4953211;28;20455;-72
2023/12/07 06:05:21;;;;;;;85.15;38.40;;;;;;;0.19;92.25;101482.19;4951281;28;20404;-72
2023/12/07 06:07:48;;;;;;;80.65;35.17;;;;;;;0.13;91.97;101484.16;4953044;28;20055;-72
2023/12/07 06:10:15;;;;;;;86.65;36.97;;;;;;;-0.03;91.95;101493.56;4953707;28;20100;-72
2023/12/07 06:12:41;;;;;;;88.00;37.28;;;;;;;-0.05;92.51;101494.56;4953468;28;20169;-72
2023/12/07 06:15:09;;;;;;;82.90;35.97;;;;;;;-0.01;92.59;101490.84;4951069;28;20527;-71
2023/12/07 06:17:36;;;;;;;80.95;36.58;;;;;;;-0.03;92.33;101490.91;4953932;28;20126;-72
2023/12/07 06:20:04;;;;;;;81.20;36.83;;;;;;;0.01;92.28;101497.88;4953697;28;20723;-71
2023/12/07 06:22:30;;;;;;;88.03;37.00;;;;;;;0.04;92.56;101496.94;4953836;28;20047;-71
2023/12/07 06:24:57;;;;;;;84.45;36.17;;;;;;;0.03;92.27;101501.41;4952857;28;20082;-71
2023/12/07 06:27:24;;;;;;;83.38;36.03;;;;;;;0.01;92.32;101503.22;4952677;28;20098;-71
2023/12/07 06:29:51;;;;;;;82.40;36.65;;;;;;;-0.03;92.47;101501.56;4952899;28;20055;-71
2023/12/07 06:32:18;;;;;;;83.20;36.85;;;;;;;-0.03;92.81;101509.56;4952608;28;20101;-72
2023/12/07 06:34:45;;;;;;;88.50;37.80;;;;;;;-0.00;92.71;101508.59;4952206;28;20456;-72
2023/12/07 06:37:12;;;;;;;85.00;36.55;;;;;;;-0.02;92.41;101510.44;4952939;28;20066;-72
2023/12/07 06:39:38;;;;;;;84.72;36.72;;;;;;;-0.06;92.58;101516.81;4952208;28;20055;-71
2023/12/07 06:42:06;;;;;;;77.97;35.42;;;;;;;-0.02;92.50;101516.66;4952508;28;20051;-71
2023/12/07 06:44:32;;;;;;;83.13;36.97;;;;;;;-0.03;92.65;101522.91;4950866;28;20144;-71
2023/12/07 06:47:02;;;;;;;82.05;36.15;;;;;;;-0.05;92.42;101524.75;4952954;28;20480;-71
2023/12/07 06:49:29;;;;;;;74.80;35.40;;;;;;;0.04;92.42;101535.13;4953499;28;20122;-72
2023/12/07 06:52:12;;;;;;;77.95;35.42;;;;;;;-0.01;92.56;101533.53;4951744;28;20047;-71
2023/12/07 06:54:39;;;;;;;79.28;35.85;;;;;;;0.11;92.31;101533.13;4938011;28;20496;-72
2023/12/07 06:57:08;;;;;;;80.28;35.17;;;;;;;0.01;92.34;101535.22;4933532;28;20475;-72
2023/12/07 06:59:35;;;;;;;79.60;35.33;;;;;;;-0.04;92.22;101531.84;4932544;28;20571;-71
2023/12/07 07:02:02;;;;;;;80.18;35.00;;;;;;;-0.04;92.42;101531.84;4933039;28;20047;-71
2023/12/07 07:04:29;;;;;;;81.93;36.28;;;;;;;0.06;92.32;101527.97;4934205;28;20047;-71
2023/12/07 07:06:57;;;;;;;83.50;33.78;;;;;;;0.07;92.12;101527.03;4916102;29;20063;-71
2023/12/07 07:09:23;;;;;;;79.15;35.72;;;;;;;0.07;92.44;101535.03;4913063;29;20450;-71
2023/12/07 07:11:51;;;;;;;87.45;38.40;;;;;;;0.02;91.89;101531.63;4913988;29;20056;-71
2023/12/07 07:14:18;;;;;;;86.28;37.00;;;;;;;-0.02;92.84;101532.66;4913845;29;20072;-71
2023/12/07 07:16:44;;;;;;;83.57;37.13;;;;;;;0.01;92.25;101545.88;4911969;29;20091;-71
2023/12/07 07:19:11;;;;;;;83.32;37.47;;;;;;;-0.00;92.21;101545.94;4912879;29;20044;-72
2023/12/07 07:21:38;;;;;;;96.15;44.05;;;;;;;-0.04;92.12;101545.16;4912206;29;20111;-71
2023/12/07 07:24:06;;;;;;;93.57;42.92;;;;;;;0.04;92.22;101544.94;4912808;29;20498;-71
2023/12/07 07:26:34;;;;;;;87.10;39.28;;;;;;;0.03;91.82;101548.53;4912506;29;20048;-71
2023/12/07 07:29:02;;;;;;;80.50;36.85;;;;;;;0.01;92.20;101545.88;4912990;29;20085;-71
2023/12/07 07:31:30;;;;;;;83.43;36.35;;;;;;;0.02;91.61;101547.63;4913696;29;20055;-71
2023/12/07 07:33:56;;;;;;;77.00;33.83;;;;;;;0.04;91.95;101551.13;4933396;28;20135;-71
2023/12/07 07:36:27;;;;;;;55.47;25.17;;;;;;;0.02;91.86;101552.97;4933736;28;20565;-71
2023/12/07 07:38:54;;;;;;;79.82;35.72;;;;;;;0.10;91.63;101544.72;4932082;28;20508;-71
2023/12/07 07:41:21;;;;;;;78.07;35.35;;;;;;;0.07;91.78;101540.38;4933891;28;20096;-71
2023/12/07 07:43:47;;;;;;;80.75;35.92;;;;;;;0.03;91.88;101546.72;4933079;28;20127;-71
2023/12/07 07:46:14;;;;;;;80.50;36.80;;;;;;;0.07;91.84;101556.38;4932015;28;20051;-71
2023/12/07 07:48:41;;;;;;;79.07;36.10;;;;;;;0.12;91.94;101549.09;4932316;28;20568;-71
2023/12/07 07:51:08;;;;;;;77.50;34.45;;;;;;;0.16;91.84;101543.66;4931796;28;20047;-72
2023/12/07 07:53:34;;;;;;;78.50;35.55;;;;;;;0.19;91.35;101551.56;4937875;28;20047;-71
2023/12/07 07:56:01;;;;;;;74.05;35.08;;;;;;;0.19;91.26;101540.88;4950498;28;20508;-71
2023/12/07 07:58:28;;;;;;;79.35;37.28;;;;;;;0.19;91.63;101549.75;4950369;28;20047;-71
2023/12/07 08:00:54;;;;;;;75.35;35.78;;;;;;;0.22;90.86;101551.47;4950082;28;20150;-71
2023/12/07 08:03:22;;;;;;;66.43;33.53;;;;;;;0.26;91.49;101550.44;4949793;28;20055;-71
2023/12/07 08:05:49;;;;;;;70.35;34.83;;;;;;;0.28;91.19;101545.94;4950238;28;20507;-71
2023/12/07 08:08:15;;;;;;;72.80;33.58;;;;;;;0.22;91.45;101549.69;4950534;28;20043;-72
2023/12/07 08:10:42;;;;;;;74.28;34.80;;;;;;;0.32;91.01;101545.78;4949717;28;20055;-71
2023/12/07 08:13:21;;;;;;;70.70;35.78;;;;;;;0.24;91.50;101552.31;4951443;28;20047;-71
2023/12/07 08:15:48;;;;;;;70.60;35.28;;;;;;;0.30;91.02;101558.31;4948513;28;20098;-71
2023/12/07 08:18:15;;;;;;;74.95;35.40;;;;;;;0.40;90.82;101564.22;4951278;28;20467;-70
2023/12/07 08:20:42;;;;;;;71.35;34.40;;;;;;;0.35;90.87;101576.84;4950426;28;20482;-70
2023/12/07 08:23:08;;;;;;;68.50;34.40;;;;;;;0.33;90.94;101565.34;4951486;28;20047;-70
2023/12/07 08:25:35;;;;;;;67.88;33.97;;;;;;;0.41;90.63;101571.31;4949976;28;20051;-70
2023/12/07 08:28:02;;;;;;;73.07;34.80;;;;;;;0.37;90.77;101565.19;4949125;28;20502;-72
2023/12/07 08:30:30;;;;;;;61.58;32.88;;;;;;;0.49;90.43;101558.59;4951346;28;20046;-70
2023/12/07 08:32:57;;;;;;;71.60;35.92;;;;;;;0.41;90.21;101573.97;4950469;28;20133;-72
2023/12/07 08:35:24;;;;;;;68.88;34.65;;;;;;;0.43;90.16;101570.34;4950994;28;20051;-72
2023/12/07 08:37:50;;;;;;;69.60;33.50;;;;;;;0.41;89.90;101574.84;4949836;28;20105;-72
2023/12/07 08:40:17;;;;;;;68.88;34.20;;;;;;;0.61;90.23;101576.00;4950192;28;20063;-71
2023/12/07 08:42:47;;;;;;;68.35;33.95;;;;;;;0.80;89.24;101577.13;4949320;28;20475;-72
2023/12/07 08:45:17;;;;;;;63.75;32.80;;;;;;;0.73;89.33;101578.25;4950456;28;20043;-72
2023/12/07 08:47:43;;;;;;;67.70;34.53;;;;;;;0.80;89.32;101578.91;4949561;28;20051;-72
2023/12/07 08:50:11;;;;;;;67.93;34.70;;;;;;;0.75;88.93;101583.53;4950871;28;20101;-72
2023/12/07 08:52:38;;;;;;;65.15;32.40;;;;;;;0.79;89.10;101582.50;4950174;28;20447;-72
2023/12/07 08:55:15;;;;;;;69.82;33.55;;;;;;;0.71;89.46;101574.75;4912463;29;20049;-71
2023/12/07 08:57:42;;;;;;;71.07;34.00;;;;;;;0.71;89.32;101570.28;4912382;29;20123;-72
2023/12/07 09:00:09;;;;;;;64.55;33.25;;;;;;;0.89;89.58;101584.81;4912569;29;20136;-72
2023/12/07 09:02:36;;;;;;;62.60;31.35;;;;;;;1.04;89.43;101578.03;4912023;29;20044;-72
2023/12/07 09:05:13;;;;;;;63.00;32.58;;;;;;;1.11;89.42;101587.59;4912902;29;20485;-71
2023/12/07 09:07:40;;;;;;;60.60;31.52;;;;;;;1.05;89.00;101585.16;4911471;29;20052;-71
2023/12/07 09:10:08;;;;;;;61.17;30.67;;;;;;;0.91;89.01;101582.09;4912348;29;20074;-71
2023/12/07 09:12:36;;;;;;;58.63;29.73;;;;;;;0.89;88.58;101583.94;4910376;29;20056;-72
2023/12/07 09:15:07;;;;;;;57.75;29.30;;;;;;;0.98;87.78;101580.94;4914799;29;20425;-72
2023/12/07 09:17:34;;;;;;;58.80;30.45;;;;;;;0.92;88.08;101584.69;4914622;29;20052;-71
2023/12/07 09:20:01;;;;;;;54.92;29.45;;;;;;;1.05;88.07;101590.50;4915245;29;20125;-72
2023/12/07 09:22:28;;;;;;;60.92;30.75;;;;;;;1.04;88.56;101595.88;4916653;29;20561;-72
2023/12/07 09:25:04;;;;;;;60.90;29.88;;;;;;;1.08;88.56;101594.88;4915481;29;20048;-72
2023/12/07 09:27:33;;;;;;;60.72;31.52;;;;;;;1.00;87.66;101593.31;4914044;29;20092;-71
2023/12/07 09:29:59;;;;;;;61.63;31.08;;;;;;;0.93;88.09;101590.91;4915636;29;20386;-72
2023/12/07 09:32:27;;;;;;;66.00;32.97;;;;;;;0.83;88.51;101592.16;4916800;29;20072;-71
2023/12/07 09:35:03;;;;;;;62.90;30.70;;;;;;;0.98;88.64;101588.97;4924530;29;20054;-71
2023/12/07 09:37:30;;;;;;;60.58;30.90;;;;;;;0.93;88.13;101590.91;4898389;29;20052;-71
2023/12/07 09:39:57;;;;;;;62.17;30.92;;;;;;;1.03;88.45;101597.69;4896731;29;20059;-71
2023/12/07 09:42:24;;;;;;;56.53;29.75;;;;;;;1.16;88.03;101600.81;4896182;29;20143;-71
2023/12/07 09:44:57;;;;;;;64.97;31.38;;;;;;;1.09;88.05;101597.47;4895686;29;20130;-71
2023/12/07 09:47:27;;;;;;;62.85;31.10;;;;;;;0.85;88.38;101603.66;4896077;29;20170;-71
2023/12/07 09:50:08;;;;;;;64.22;31.77;;;;;;;0.95;88.63;101599.72;4896090;29;20055;-72
2023/12/07 09:52:35;;;;;;;;;;;;;;;0.83;88.61;101609.03;4895479;29;20566;-71
2023/12/07 09:55:03;;;;;;;72.97;32.95;;;;;;;0.97;88.48;101608.59;4931862;28;19922;-71
2023/12/07 09:57:30;;;;;;;67.57;32.13;;;;;;;0.84;88.45;101608.13;4933314;29;20055;-71
2023/12/07 09:59:57;;;;;;;65.28;32.00;;;;;;;0.85;88.68;101622.34;4934803;28;20052;-71
2023/12/07 10:02:25;;;;;;;66.00;31.90;;;;;;;0.82;89.08;101614.44;4933432;28;20666;-71
2023/12/07 10:05:16;;;;;;;66.57;31.77;;;;;;;0.91;88.94;101606.13;4933211;28;20407;-71
2023/12/07 10:07:46;;;;;;;65.38;31.30;;;;;;;0.87;89.24;101607.16;4952968;28;20054;-71
2023/12/07 10:10:14;;;;;;;61.58;29.42;;;;;;;0.94;89.43;101608.69;4952311;28;20047;-72
2023/12/07 10:12:59;;;;;;;65.93;30.88;;;;;;;0.89;89.32;101605.31;4952927;28;20061;-71
2023/12/07 10:15:26;;;;;;;64.90;30.85;;;;;;;0.96;89.05;101606.84;4953490;28;20126;-71
2023/12/07 10:17:58;;;;;;;63.90;32.42;;;;;;;0.86;89.31;101597.38;4952636;28;20043;-71
2023/12/07 10:20:29;;;;;;;65.20;30.52;;;;;;;0.90;89.31;101591.03;4953761;28;20069;-72
2023/12/07 10:23:07;;;;;;;63.60;30.50;;;;;;;1.00;89.13;101590.66;4953720;28;20051;-71
2023/12/07 10:25:39;;;;;;;62.60;29.50;;;;;;;0.99;88.82;101591.59;4950722;28;20050;-71
2023/12/07 10:28:10;;;;;;;;;;;;;;;1.10;88.90;101593.88;4951931;28;20079;-72
2023/12/07 10:30:40;;;;;;;59.75;29.70;;;;;;;1.28;88.36;101597.69;4952272;28;19922;-71
2023/12/07 10:33:09;;;;;;;65.35;31.48;;;;;;;1.18;87.98;101599.81;4951326;28;20043;-71
2023/12/07 10:35:39;;;;;;;58.78;29.90;;;;;;;1.05;88.75;101601.19;4952640;28;20040;-71
2023/12/07 10:38:07;;;;;;;63.42;29.80;;;;;;;1.13;88.62;101596.44;4951663;28;20496;-71
2023/12/07 10:40:33;;;;;;;59.03;29.90;;;;;;;1.08;88.77;101595.72;4951850;28;20058;-70
2023/12/07 10:43:04;;;;;;;60.05;30.67;;;;;;;1.21;88.66;101591.69;4950454;28;20074;-70
2023/12/07 10:45:32;;;;;;;65.85;30.08;;;;;;;1.34;87.98;101591.28;4950933;28;20381;-71
2023/12/07 10:48:05;;;;;;;58.05;29.80;;;;;;;1.43;87.71;101585.59;4954561;28;20073;-71
2023/12/07 10:50:35;;;;;;;58.80;28.83;;;;;;;1.22;87.67;101598.78;4951008;28;20365;-71
2023/12/07 10:53:10;;;;;;;56.78;29.40;;;;;;;1.13;87.71;101599.09;4950046;28;20051;-71
2023/12/07 10:55:48;;;;;;;53.42;27.40;;;;;;;1.29;87.55;101599.44;4933237;28;20200;-70
2023/12/07 10:58:17;;;;;;;57.17;31.30;;;;;;;1.35;87.63;101593.88;4933495;28;20067;-71
2023/12/07 11:00:47;;;;;;;53.95;28.23;;;;;;;1.40;87.51;101591.91;4933724;28;20386;-70
2023/12/07 11:03:19;;;;;;;45.70;22.08;;;;;;;1.32;87.59;101598.44;4933814;28;20567;-71
2023/12/07 11:05:47;;;;;;;60.55;31.05;;;;;;;1.45;87.41;101589.94;4932788;28;20051;-71
2023/12/07 11:08:18;;;;;;;52.63;27.58;;;;;;;1.50;87.26;101582.63;4932920;28;20140;-72
2023/12/07 11:11:02;;;;;;;58.78;28.67;;;;;;;1.51;86.25;101580.81;4932452;28;20051;-70
2023/12/07 11:13:36;;;;;;;64.25;30.10;;;;;;;1.46;86.46;101582.81;4932004;29;20417;-71
2023/12/07 11:16:04;;;;;;;56.85;28.98;;;;;;;1.40;87.04;101583.00;4933886;28;20058;-70
2023/12/07 11:18:30;;;;;;;57.97;30.02;;;;;;;1.33;87.34;101586.81;4933176;28;20469;-71
2023/12/07 11:20:58;;;;;;;61.55;31.58;;;;;;;1.13;88.00;101582.19;4933690;28;20378;-71
2023/12/07 11:23:27;;;;;;;57.45;29.70;;;;;;;1.20;88.32;101578.38;4932698;28;20048;-71